Pagrindinis puslapis
METAR-TAF:

METAR-TAF

Oro uostai :

Salernas, Italija

platuma: 40-37N, ilguma: 014-55E, Aukštis: 40 m

Dabartinis oras

Ataskaita buvo paskelbta 4 valandos ir 27 minutes, ne 15:50 UTC
Vėjas 5 kt iš Vakarų
Temperatūra 15°C
Drėgmė 63%
Slėgis 1013 hPa
Matomumas 10 km arba daugiau
Išsisklaidę debesys ne aukštis 3500 ft

METAR: LIRI 281550Z 28005KT 9999 SCT035 15/08 Q1013

Laikas: 21:17 (20:17 UTC)


TAF: trūkstamas

Orai ataskaitas ir orų prognozės (METAR, TAF).

turimą stotys yra geltonos ir raudonos taškus žemėlapyje.

Perkelti pele per norėdami pamatyti stoties vardą.

Tada spustelėkite, norėdami matyti oro stebėjimo ir prognozės.

Norėdami pakeisti žemėlapį: spustelėkite ant žalios mygtukų su juodo kryžiaus žemyn,; žalią mygtuką su brūkšneliu, jei norite nutolinti; arba žalių rodyklių gretimoms žemėlapius.


METAR-TAF: